Ridgewood, NJ (07450)

1:45 PM EDT on September 22, 2014 (GMT -0400)
Hope Street | Change Station
CLOSE
Current Station
Personal Weather Station
Location: Ridgewood, NJ
Elevation: 89 ft
Nearby Weather Stations

Elev 89 ft 40.98 °N, 74.11 °W | Updated 10 minutes ago

Mostly Cloudy
Mostly Cloudy
72.5 °F
Feels Like 77 °F
N
2.2
Wind Variable Wind from NNE

Today
High -- | Low -- °F
--% Chance of Precip.
Yesterday
High -- | Low -- °F
Precip. -- in
6:43 AM 6:53 PM
Waning Crescent, 2% visible
Pressure 29.89 in
Visibility 10.0 miles
Clouds Overcast 4500 ft
Heat Index 77 °F
Dew Point 52 °F
Humidity 49%
Rainfall 0.00 in
Snow Depth Not available.
UV 2 out of 12
Pollen 4.00 out of 12
Air Quality Not available.
Flu Activity Not available.
SPECI KTEB 221620Z 31011G16KT 10SM OVC045 21/09 A2989

More Conditions Fewer Conditions

Pressure 29.89 in
Visibility 10.0 miles
Clouds Overcast 4500 ft
Heat Index 77 °F
Dew Point 52 °F
Humidity 49%
Rainfall 0.00 in
Snow Depth Not available.
UV 2 out of 12
Pollen 4.00 out of 12
Air Quality Not available.
Flu Activity Not available.
SPECI KTEB 221620Z 31011G16KT 10SM OVC045 21/09 A2989

More Conditions Fewer Conditions

10-Day Weather Forecast

Almanac

Astronomy

Sep. 22, 2014 Rise Set
Actual Time 6:43 AM EDT 6:53 PM EDT
Civil Twilight 6:16 AM EDT 7:21 PM EDT
Nautical Twilight 5:44 AM EDT 7:53 PM EDT
Astronomical Twilight 5:11 AM EDT 8:25 PM EDT
Moon 5:09 AM EDT 6:00 PM EDT
Length of Visible Light 13h 04m
Length of Day
12h 09m
Tomorrow will be 2m 42s shorter.
Waning Crescent, 2% of the Moon is Illuminated
Today
Waning Crescent
Sep 24
New
Oct 1
First Quarter
Oct 8
Full
Oct 15
Last Quarter

Today's Extremes

State Highs State Lows

Community

WunderPhotos

Upload Photos

1,755,494 photos uploaded!

WunderBlogs® & News

Nearby

Snow Depth

Station Depth Elevation
No new snow has been reported.

Earthquake Activity

City Distance Mag. Time & Date
No recent earthquake activity has been reported nearby.
Minimum magnitude displayed is 2.5.

Coastal Water Temperatures

Place Temperature
Kings Point, NY 68.0 °F
Bridgeport, CT 69.1 °F

Nearby Weather Stations